Time;durP1;ratioP1;P1;durP2;ratioP2;P2;SDS_P1;SDS_P2;PMS_P1;PMS_P2;Temp;Humidity;BMP_temperature;BMP_pressure;BME280_temperature;BME280_humidity;BME280_pressure;Samples;Min_cycle;Max_cycle;Signal;HPM_P1;HPM_P2
2023/03/29 00:01:35;;;;;;;0.40;0.37;;;;;;;;;;5087972;28;20256;-60
2023/03/29 00:04:02;;;;;;;0.33;0.33;;;;;;;;;;5089909;28;20199;-61
2023/03/29 00:06:31;;;;;;;0.73;0.67;;;;;;;;;;5083754;28;20213;-61
2023/03/29 00:09:00;;;;;;;0.47;0.47;;;;;;;;;;5086147;28;20542;-61
2023/03/29 00:11:27;;;;;;;0.47;0.40;;;;;;;;;;5081703;28;20297;-61
2023/03/29 00:13:54;;;;;;;0.43;0.40;;;;;;;;;;5088947;28;20206;-61
2023/03/29 00:16:21;;;;;;;0.70;0.50;;;;;;;;;;5079855;28;20211;-61
2023/03/29 00:18:49;;;;;;;0.50;0.50;;;;;;;;;;5086381;28;20207;-61
2023/03/29 00:21:16;;;;;;;0.50;0.50;;;;;;;;;;5089086;28;20214;-61
2023/03/29 00:23:43;;;;;;;0.83;0.57;;;;;;;;;;5087911;28;20295;-61
2023/03/29 00:26:11;;;;;;;0.50;0.50;;;;;;;;;;5084539;28;20198;-61
2023/03/29 00:28:38;;;;;;;0.50;0.50;;;;;;;;;;5083114;28;20213;-61
2023/03/29 00:31:06;;;;;;;0.43;0.43;;;;;;;;;;5082913;28;20214;-61
2023/03/29 00:33:34;;;;;;;0.40;0.40;;;;;;;;;;5084951;28;20213;-61
2023/03/29 00:36:02;;;;;;;1.70;0.60;;;;;;;;;;5086647;28;20279;-61
2023/03/29 00:38:29;;;;;;;0.53;0.53;;;;;;;;;;5089683;28;20682;-61
2023/03/29 00:40:57;;;;;;;0.30;0.30;;;;;;;;;;5087653;28;20222;-61
2023/03/29 00:43:25;;;;;;;0.30;0.30;;;;;;;;;;5088765;28;20209;-61
2023/03/29 00:45:52;;;;;;;0.43;0.43;;;;;;;;;;5085225;28;20205;-61
2023/03/29 00:48:21;;;;;;;1.53;0.53;;;;;;;;;;5091103;28;20220;-61
2023/03/29 00:50:51;;;;;;;0.33;0.33;;;;;;;;;;5090443;28;20230;-61
2023/03/29 00:53:20;;;;;;;0.30;0.30;;;;;;;;;;5090021;28;20206;-61
2023/03/29 00:55:51;;;;;;;0.40;0.40;;;;;;;;;;5089780;28;20293;-62
2023/03/29 00:58:20;;;;;;;0.20;0.20;;;;;;;;;;5089193;28;20244;-61
2023/03/29 01:00:51;;;;;;;0.30;0.30;;;;;;;;;;5092610;28;20749;-60
2023/03/29 01:03:23;;;;;;;2.77;0.40;;;;;;;;;;5103519;28;20600;-61
2023/03/29 01:05:52;;;;;;;0.40;0.40;;;;;;;;;;5097430;28;20604;-61
2023/03/29 01:08:24;;;;;;;0.53;0.53;;;;;;;;;;5090173;28;20208;-61
2023/03/29 01:10:54;;;;;;;0.20;0.20;;;;;;;;;;5098740;28;20237;-61
2023/03/29 01:13:25;;;;;;;0.50;0.50;;;;;;;;;;5093806;28;20217;-61
2023/03/29 01:15:54;;;;;;;0.30;0.30;;;;;;;;;;5090212;28;20673;-61
2023/03/29 01:18:21;;;;;;;0.40;0.40;;;;;;;;;;5089571;28;20241;-61
2023/03/29 01:21:01;;;;;;;0.20;0.20;;;;;;;;;;5088188;28;20252;-61
2023/03/29 01:23:42;;;;;;;0.33;0.33;;;;;;;;;;5092196;28;20774;-61
2023/03/29 01:26:12;;;;;;;0.30;0.30;;;;;;;;;;5097752;28;20194;-63
2023/03/29 01:28:44;;;;;;;0.37;0.30;;;;;;;;;;5097873;28;20557;-61
2023/03/29 01:31:13;;;;;;;0.60;0.50;;;;;;;;;;5088308;28;20657;-61
2023/03/29 01:33:43;;;;;;;0.50;0.50;;;;;;;;;;5088395;28;20195;-61
2023/03/29 01:36:13;;;;;;;0.30;0.30;;;;;;;;;;5091734;28;20628;-61
2023/03/29 01:38:42;;;;;;;0.33;0.30;;;;;;;;;;5106758;28;20209;-61
2023/03/29 01:41:11;;;;;;;0.30;0.30;;;;;;;;;;5086656;28;20657;-61
2023/03/29 01:43:42;;;;;;;0.20;0.20;;;;;;;;;;5087358;28;20246;-61
2023/03/29 01:46:13;;;;;;;0.40;0.40;;;;;;;;;;5087151;28;20200;-61
2023/03/29 01:48:44;;;;;;;1.03;0.60;;;;;;;;;;5089288;28;20193;-61
2023/03/29 01:51:14;;;;;;;0.47;0.40;;;;;;;;;;5093160;28;20696;-61
2023/03/29 01:53:43;;;;;;;0.40;0.40;;;;;;;;;;5088132;28;20656;-61
2023/03/29 01:56:18;;;;;;;0.37;0.37;;;;;;;;;;5086247;28;20623;-61
2023/03/29 01:58:46;;;;;;;1.53;0.50;;;;;;;;;;5086462;28;20202;-61
2023/03/29 02:01:16;;;;;;;0.40;0.40;;;;;;;;;;5095568;28;20190;-61
2023/03/29 02:03:48;;;;;;;0.77;0.60;;;;;;;;;;5088418;28;20206;-61
2023/03/29 02:06:16;;;;;;;0.40;0.40;;;;;;;;;;5090344;28;20579;-60
2023/03/29 02:08:44;;;;;;;0.60;0.60;;;;;;;;;;5091868;28;20296;-61
2023/03/29 02:11:11;;;;;;;1.30;0.60;;;;;;;;;;5093610;28;20225;-61
2023/03/29 02:13:38;;;;;;;0.63;0.53;;;;;;;;;;5108333;28;20213;-61
2023/03/29 02:16:10;;;;;;;1.03;0.70;;;;;;;;;;5101200;28;20205;-60
2023/03/29 02:18:39;;;;;;;0.40;0.40;;;;;;;;;;5096449;28;20198;-61
2023/03/29 02:21:07;;;;;;;0.60;0.60;;;;;;;;;;5096362;28;20206;-61
2023/03/29 02:23:38;;;;;;;0.87;0.60;;;;;;;;;;5092996;28;20242;-61
2023/03/29 02:26:07;;;;;;;0.50;0.50;;;;;;;;;;5094759;28;20198;-61
2023/03/29 02:28:34;;;;;;;0.63;0.63;;;;;;;;;;5104706;28;20214;-61
2023/03/29 02:31:05;;;;;;;1.40;0.43;;;;;;;;;;5098633;28;20325;-61
2023/03/29 02:33:35;;;;;;;0.30;0.30;;;;;;;;;;5093099;28;20213;-61
2023/03/29 02:36:05;;;;;;;2.00;0.50;;;;;;;;;;5092676;28;20758;-61
2023/03/29 02:38:32;;;;;;;0.50;0.30;;;;;;;;;;5102070;28;20325;-61
2023/03/29 02:41:00;;;;;;;0.50;0.50;;;;;;;;;;5105142;28;20848;-61
2023/03/29 02:43:28;;;;;;;0.70;0.70;;;;;;;;;;5109840;28;20217;-61
2023/03/29 02:45:55;;;;;;;0.53;0.53;;;;;;;;;;5105355;28;20205;-61
2023/03/29 02:48:40;;;;;;;0.70;0.70;;;;;;;;;;5099074;28;20213;-61
2023/03/29 02:51:13;;;;;;;0.40;0.40;;;;;;;;;;5101698;28;20222;-61
2023/03/29 02:53:42;;;;;;;0.83;0.60;;;;;;;;;;5092464;28;20567;-61
2023/03/29 02:56:09;;;;;;;1.50;0.50;;;;;;;;;;5091289;28;20194;-61
2023/03/29 02:58:37;;;;;;;0.30;0.30;;;;;;;;;;5091142;28;20210;-61
2023/03/29 03:01:05;;;;;;;2.47;0.73;;;;;;;;;;5096443;28;20854;-61
2023/03/29 03:03:32;;;;;;;0.93;0.53;;;;;;;;;;5091302;28;20317;-61
2023/03/29 03:06:00;;;;;;;0.50;0.43;;;;;;;;;;5096429;28;20206;-61
2023/03/29 03:08:29;;;;;;;1.80;0.60;;;;;;;;;;5090849;28;20229;-61
2023/03/29 03:10:56;;;;;;;0.57;0.57;;;;;;;;;;5099618;28;20871;-61
2023/03/29 03:13:23;;;;;;;0.53;0.53;;;;;;;;;;5095506;28;20210;-61
2023/03/29 03:15:50;;;;;;;0.50;0.50;;;;;;;;;;5102756;28;20215;-61
2023/03/29 03:18:17;;;;;;;0.77;0.77;;;;;;;;;;5090911;28;20213;-61
2023/03/29 03:20:45;;;;;;;0.67;0.67;;;;;;;;;;5094990;28;20205;-61
2023/03/29 03:23:12;;;;;;;2.00;0.50;;;;;;;;;;5109138;28;20229;-61
2023/03/29 03:25:41;;;;;;;0.47;0.47;;;;;;;;;;5095622;28;20198;-61
2023/03/29 03:28:08;;;;;;;0.47;0.47;;;;;;;;;;5104635;28;20228;-61
2023/03/29 03:30:35;;;;;;;0.80;0.53;;;;;;;;;;5093243;28;20233;-61
2023/03/29 03:33:02;;;;;;;0.47;0.40;;;;;;;;;;5105143;28;20201;-60
2023/03/29 03:35:29;;;;;;;0.40;0.40;;;;;;;;;;5109008;28;20580;-61
2023/03/29 03:37:56;;;;;;;0.50;0.50;;;;;;;;;;5095873;28;20264;-61
2023/03/29 03:40:23;;;;;;;1.90;0.40;;;;;;;;;;5090458;28;20255;-61
2023/03/29 03:42:52;;;;;;;0.47;0.47;;;;;;;;;;5109649;28;20202;-61
2023/03/29 03:45:19;;;;;;;0.63;0.60;;;;;;;;;;5101532;28;20206;-61
2023/03/29 03:47:46;;;;;;;0.57;0.57;;;;;;;;;;5091505;28;20205;-61
2023/03/29 03:50:13;;;;;;;0.80;0.60;;;;;;;;;;5100498;28;20215;-61
2023/03/29 03:52:40;;;;;;;0.57;0.57;;;;;;;;;;5108654;28;20676;-61
2023/03/29 03:55:08;;;;;;;0.70;0.70;;;;;;;;;;5092618;28;20203;-61
2023/03/29 03:57:36;;;;;;;0.50;0.50;;;;;;;;;;5091027;28;20217;-60
2023/03/29 04:00:17;;;;;;;1.40;0.77;;;;;;;;;;5101848;28;20210;-61
2023/03/29 04:02:45;;;;;;;0.63;0.57;;;;;;;;;;5097593;28;20292;-61
2023/03/29 04:05:12;;;;;;;0.40;0.40;;;;;;;;;;5102033;28;20289;-61
2023/03/29 04:07:53;;;;;;;0.50;0.50;;;;;;;;;;5089080;28;20228;-61
2023/03/29 04:10:20;;;;;;;0.40;0.40;;;;;;;;;;5089514;28;20271;-61
2023/03/29 04:12:47;;;;;;;0.40;0.40;;;;;;;;;;5089711;28;20210;-61
2023/03/29 04:15:16;;;;;;;0.50;0.50;;;;;;;;;;5090330;28;20643;-61
2023/03/29 04:17:43;;;;;;;0.70;0.70;;;;;;;;;;5090646;28;20197;-61
2023/03/29 04:20:11;;;;;;;4.17;0.50;;;;;;;;;;5089984;28;20213;-61
2023/03/29 04:22:38;;;;;;;1.20;0.40;;;;;;;;;;5097973;28;20246;-61
2023/03/29 04:25:07;;;;;;;1.20;0.83;;;;;;;;;;5109934;28;20209;-61
2023/03/29 04:27:34;;;;;;;0.60;0.57;;;;;;;;;;5093048;28;20194;-61
2023/03/29 04:30:01;;;;;;;3.30;0.67;;;;;;;;;;5089824;28;20221;-60
2023/03/29 04:32:29;;;;;;;0.50;0.47;;;;;;;;;;5091845;28;20236;-61
2023/03/29 04:34:56;;;;;;;0.30;0.30;;;;;;;;;;5109287;28;20205;-61
2023/03/29 04:37:23;;;;;;;1.47;0.70;;;;;;;;;;5104255;28;20292;-60
2023/03/29 04:39:51;;;;;;;0.67;0.67;;;;;;;;;;5089311;28;20202;-60
2023/03/29 04:42:18;;;;;;;0.60;0.60;;;;;;;;;;5089574;28;20210;-61
2023/03/29 04:44:45;;;;;;;3.00;0.53;;;;;;;;;;5089115;28;20213;-61
2023/03/29 04:47:13;;;;;;;0.67;0.60;;;;;;;;;;5088646;28;21012;-61
2023/03/29 04:49:42;;;;;;;0.63;0.63;;;;;;;;;;5091473;28;20202;-60
2023/03/29 04:52:09;;;;;;;0.70;0.70;;;;;;;;;;5108691;28;20229;-60
2023/03/29 04:54:37;;;;;;;0.43;0.43;;;;;;;;;;5090777;28;20279;-61
2023/03/29 04:57:04;;;;;;;0.50;0.50;;;;;;;;;;5108809;28;20244;-61
2023/03/29 04:59:31;;;;;;;0.93;0.70;;;;;;;;;;5103254;28;20210;-61
2023/03/29 05:01:58;;;;;;;0.50;0.50;;;;;;;;;;5099469;28;20228;-60
2023/03/29 05:04:27;;;;;;;0.40;0.40;;;;;;;;;;5089877;28;20202;-61
2023/03/29 05:06:56;;;;;;;0.80;0.80;;;;;;;;;;5089150;28;20213;-61
2023/03/29 05:09:23;;;;;;;0.93;0.70;;;;;;;;;;5090108;28;20299;-61
2023/03/29 05:11:50;;;;;;;0.53;0.53;;;;;;;;;;5092064;28;20222;-61
2023/03/29 05:14:17;;;;;;;0.50;0.50;;;;;;;;;;5088022;28;20216;-59
2023/03/29 05:16:44;;;;;;;0.80;0.63;;;;;;;;;;5087789;28;20225;-61
2023/03/29 05:19:11;;;;;;;0.80;0.67;;;;;;;;;;5095955;28;20209;-61
2023/03/29 05:21:38;;;;;;;0.50;0.40;;;;;;;;;;5103841;28;20227;-61
2023/03/29 05:24:09;;;;;;;0.50;0.50;;;;;;;;;;5099066;28;20237;-61
2023/03/29 05:26:37;;;;;;;1.40;0.50;;;;;;;;;;5085901;28;20201;-61
2023/03/29 05:29:04;;;;;;;0.67;0.60;;;;;;;;;;5088948;28;20210;-61
2023/03/29 05:31:31;;;;;;;0.67;0.67;;;;;;;;;;5090935;28;20726;-61
2023/03/29 05:33:58;;;;;;;0.70;0.70;;;;;;;;;;5100750;28;20214;-61
2023/03/29 05:36:25;;;;;;;0.50;0.50;;;;;;;;;;5087608;28;20202;-61
2023/03/29 05:38:53;;;;;;;1.10;1.03;;;;;;;;;;5088428;28;20216;-61
2023/03/29 05:41:22;;;;;;;0.60;0.60;;;;;;;;;;5087661;28;20563;-61
2023/03/29 05:43:49;;;;;;;1.43;0.90;;;;;;;;;;5098393;28;20209;-61
2023/03/29 05:46:17;;;;;;;0.67;0.67;;;;;;;;;;5108737;28;20262;-61
2023/03/29 05:48:44;;;;;;;0.70;0.70;;;;;;;;;;5088911;28;20202;-63
2023/03/29 05:51:11;;;;;;;0.90;0.90;;;;;;;;;;5100125;28;20226;-62
2023/03/29 05:53:38;;;;;;;0.87;0.87;;;;;;;;;;5087326;28;20209;-61
2023/03/29 05:56:07;;;;;;;2.30;1.00;;;;;;;;;;5087857;28;20199;-61
2023/03/29 05:58:37;;;;;;;1.17;1.10;;;;;;;;;;5105348;28;20229;-61
2023/03/29 06:01:04;;;;;;;0.73;0.73;;;;;;;;;;5096978;28;20272;-60
2023/03/29 06:03:32;;;;;;;0.80;0.80;;;;;;;;;;5101632;28;20297;-59
2023/03/29 06:06:01;;;;;;;0.90;0.90;;;;;;;;;;5088608;28;20275;-60
2023/03/29 06:08:28;;;;;;;0.60;0.60;;;;;;;;;;5085762;28;20237;-59
2023/03/29 06:10:59;;;;;;;1.77;0.97;;;;;;;;;;5087621;28;20202;-60
2023/03/29 06:13:27;;;;;;;2.93;0.70;;;;;;;;;;5088075;28;20310;-61
2023/03/29 06:15:55;;;;;;;2.37;0.90;;;;;;;;;;5087864;28;20206;-61
2023/03/29 06:18:23;;;;;;;1.00;1.00;;;;;;;;;;5087762;28;20210;-61
2023/03/29 06:20:50;;;;;;;0.90;0.90;;;;;;;;;;5087738;28;20215;-60
2023/03/29 06:23:17;;;;;;;3.57;1.10;;;;;;;;;;5085360;28;20249;-60
2023/03/29 06:25:45;;;;;;;0.83;0.83;;;;;;;;;;5087449;28;20283;-61
2023/03/29 06:28:12;;;;;;;1.47;1.17;;;;;;;;;;5087611;28;20557;-61
2023/03/29 06:30:39;;;;;;;1.33;1.23;;;;;;;;;;5087685;28;20217;-60
2023/03/29 06:33:07;;;;;;;1.00;1.00;;;;;;;;;;5087503;28;20226;-60
2023/03/29 06:35:35;;;;;;;2.47;1.23;;;;;;;;;;5087152;28;20206;-61
2023/03/29 06:38:02;;;;;;;1.47;1.37;;;;;;;;;;5085225;28;20202;-60
2023/03/29 06:40:29;;;;;;;1.50;1.40;;;;;;;;;;5087289;28;20293;-60
2023/03/29 06:42:58;;;;;;;1.50;1.40;;;;;;;;;;5087561;28;20260;-60
2023/03/29 06:45:25;;;;;;;1.37;1.33;;;;;;;;;;5087612;28;20619;-60
2023/03/29 06:47:52;;;;;;;1.50;1.40;;;;;;;;;;5087422;28;20228;-60
2023/03/29 06:50:22;;;;;;;1.60;1.50;;;;;;;;;;5087212;28;20316;-61
2023/03/29 06:52:49;;;;;;;1.33;1.23;;;;;;;;;;5090262;28;20735;-61
2023/03/29 06:55:17;;;;;;;1.63;1.53;;;;;;;;;;5090988;28;20210;-61
2023/03/29 06:57:44;;;;;;;3.47;1.53;;;;;;;;;;5070736;28;20290;-58
2023/03/29 07:00:15;;;;;;;2.13;1.93;;;;;;;;;;5081259;28;20430;-59
2023/03/29 07:02:42;;;;;;;1.40;1.30;;;;;;;;;;5090937;28;20357;-59
2023/03/29 07:05:10;;;;;;;1.43;1.43;;;;;;;;;;5090490;28;20715;-59
2023/03/29 07:07:52;;;;;;;1.50;1.40;;;;;;;;;;5090638;28;20217;-59
2023/03/29 07:10:20;;;;;;;1.87;1.50;;;;;;;;;;5090692;28;20297;-59
2023/03/29 07:12:47;;;;;;;1.13;1.13;;;;;;;;;;5090614;28;20241;-59
2023/03/29 07:15:15;;;;;;;1.60;1.50;;;;;;;;;;5090575;28;20214;-59
2023/03/29 07:17:42;;;;;;;1.10;1.10;;;;;;;;;;5090382;28;20234;-59
2023/03/29 07:20:12;;;;;;;2.37;1.20;;;;;;;;;;5090138;28;20210;-59
2023/03/29 07:22:40;;;;;;;1.13;1.00;;;;;;;;;;5090136;28;20240;-59
2023/03/29 07:25:09;;;;;;;0.97;0.97;;;;;;;;;;5089912;28;20209;-59
2023/03/29 07:27:36;;;;;;;1.60;1.50;;;;;;;;;;5090137;28;20198;-60
2023/03/29 07:30:05;;;;;;;1.10;1.10;;;;;;;;;;5090375;28;20211;-60
2023/03/29 07:32:32;;;;;;;1.50;1.27;;;;;;;;;;5090128;28;20313;-59
2023/03/29 07:34:59;;;;;;;1.63;1.53;;;;;;;;;;5090090;28;20212;-60
2023/03/29 07:37:27;;;;;;;2.43;1.30;;;;;;;;;;5089680;28;20587;-59
2023/03/29 07:39:55;;;;;;;1.23;1.13;;;;;;;;;;5089546;28;20210;-59
2023/03/29 07:42:22;;;;;;;1.60;1.50;;;;;;;;;;5089859;28;20199;-59
2023/03/29 07:44:49;;;;;;;1.17;1.17;;;;;;;;;;5090166;28;20214;-59
2023/03/29 07:47:17;;;;;;;1.37;1.30;;;;;;;;;;5089861;28;20552;-59
2023/03/29 07:49:44;;;;;;;0.83;0.83;;;;;;;;;;5089341;28;20210;-59
2023/03/29 07:52:11;;;;;;;1.50;1.40;;;;;;;;;;5089245;28;20230;-59
2023/03/29 07:54:38;;;;;;;4.57;1.40;;;;;;;;;;5089790;28;20577;-60
2023/03/29 07:57:07;;;;;;;3.47;1.73;;;;;;;;;;5089165;28;20194;-59
2023/03/29 07:59:34;;;;;;;1.37;1.37;;;;;;;;;;5089421;28;20215;-60
2023/03/29 08:02:01;;;;;;;1.23;1.10;;;;;;;;;;5089224;28;20194;-60
2023/03/29 08:04:28;;;;;;;2.20;1.30;;;;;;;;;;5088927;28;20229;-59
2023/03/29 08:06:55;;;;;;;1.37;1.33;;;;;;;;;;5089178;28;20673;-59
2023/03/29 08:09:22;;;;;;;3.33;1.10;;;;;;;;;;5089364;28;20292;-59
2023/03/29 08:11:49;;;;;;;1.43;1.43;;;;;;;;;;5089154;28;20233;-59
2023/03/29 08:14:18;;;;;;;0.97;0.97;;;;;;;;;;5089359;28;20214;-58
2023/03/29 08:16:45;;;;;;;1.87;1.20;;;;;;;;;;5089049;28;20209;-62
2023/03/29 08:19:13;;;;;;;1.77;1.67;;;;;;;;;;5088876;28;20217;-62
2023/03/29 08:21:40;;;;;;;5.60;1.23;;;;;;;;;;5088426;28;20234;-59
2023/03/29 08:24:08;;;;;;;1.93;1.20;;;;;;;;;;5088312;28;20264;-60
2023/03/29 08:26:35;;;;;;;8.43;1.20;;;;;;;;;;5087706;28;20271;-65
2023/03/29 08:29:02;;;;;;;1.10;1.10;;;;;;;;;;5088137;28;20217;-61
2023/03/29 08:31:31;;;;;;;1.30;1.23;;;;;;;;;;5087966;28;20734;-61
2023/03/29 08:33:58;;;;;;;1.07;1.03;;;;;;;;;;5082100;28;20202;-61
2023/03/29 08:36:25;;;;;;;1.37;1.37;;;;;;;;;;5086242;28;20229;-61
2023/03/29 08:38:52;;;;;;;1.07;1.03;;;;;;;;;;5087023;28;20210;-65
2023/03/29 08:41:26;;;;;;;1.13;1.03;;;;;;;;;;5087433;28;20206;-63
2023/03/29 08:43:56;;;;;;;1.00;1.00;;;;;;;;;;5087035;28;20225;-61
2023/03/29 08:46:28;;;;;;;1.43;1.10;;;;;;;;;;5086214;28;20260;-62
2023/03/29 08:49:00;;;;;;;1.10;1.10;;;;;;;;;;5086744;28;20229;-61
2023/03/29 08:51:28;;;;;;;0.97;0.93;;;;;;;;;;5086861;28;20851;-59
2023/03/29 08:53:58;;;;;;;1.50;1.17;;;;;;;;;;5087466;28;20230;-62
2023/03/29 08:56:27;;;;;;;1.07;1.07;;;;;;;;;;5087142;28;20699;-59
2023/03/29 08:58:55;;;;;;;2.07;1.97;;;;;;;;;;5085528;28;20228;-59
2023/03/29 09:01:23;;;;;;;2.10;1.20;;;;;;;;;;5086180;28;20735;-60
2023/03/29 09:03:57;;;;;;;5.10;1.70;;;;;;;;;;5086114;28;20643;-61
2023/03/29 09:06:25;;;;;;;4.33;1.40;;;;;;;;;;5087932;28;20217;-61
2023/03/29 09:08:53;;;;;;;0.93;0.93;;;;;;;;;;5088184;28;20207;-60
2023/03/29 09:11:28;;;;;;;1.20;1.20;;;;;;;;;;5088185;28;20202;-59
2023/03/29 09:14:03;;;;;;;1.90;1.73;;;;;;;;;;5085246;28;20228;-61
2023/03/29 09:16:34;;;;;;;1.37;1.37;;;;;;;;;;5087847;28;20210;-62
2023/03/29 09:19:05;;;;;;;2.27;1.57;;;;;;;;;;5088598;28;20202;-60
2023/03/29 09:21:36;;;;;;;2.23;1.73;;;;;;;;;;5084317;28;20601;-61
2023/03/29 09:24:10;;;;;;;2.57;2.10;;;;;;;;;;5087754;28;20316;-61
2023/03/29 09:26:40;;;;;;;4.07;2.00;;;;;;;;;;5088257;28;20210;-61
2023/03/29 09:29:18;;;;;;;2.03;1.70;;;;;;;;;;5088156;28;20306;-61
2023/03/29 09:31:45;;;;;;;1.87;1.20;;;;;;;;;;5087865;28;20591;-60
2023/03/29 09:34:14;;;;;;;1.90;1.53;;;;;;;;;;5088336;28;20234;-59
2023/03/29 09:36:46;;;;;;;2.87;1.87;;;;;;;;;;5087958;28;20211;-59
2023/03/29 09:39:15;;;;;;;2.70;1.80;;;;;;;;;;5082331;28;20230;-60
2023/03/29 09:41:45;;;;;;;3.07;1.30;;;;;;;;;;5080425;28;20217;-61
2023/03/29 09:44:14;;;;;;;1.43;1.40;;;;;;;;;;5087085;28;20209;-62
2023/03/29 09:46:42;;;;;;;1.90;1.90;;;;;;;;;;5087269;28;20259;-61
2023/03/29 09:49:13;;;;;;;2.00;1.90;;;;;;;;;;5087596;28;20244;-61
2023/03/29 09:51:41;;;;;;;1.40;1.30;;;;;;;;;;5087480;28;20210;-61
2023/03/29 09:54:11;;;;;;;1.73;1.63;;;;;;;;;;5087349;28;20317;-61
2023/03/29 09:56:39;;;;;;;1.30;1.30;;;;;;;;;;5087004;28;20213;-60
2023/03/29 09:59:06;;;;;;;10.00;5.80;;;;;;;;;;5087544;28;20230;-61
2023/03/29 10:01:37;;;;;;;1.90;1.80;;;;;;;;;;5087305;28;20217;-61
2023/03/29 10:04:06;;;;;;;2.63;2.17;;;;;;;;;;5088059;28;20300;-62
2023/03/29 10:06:34;;;;;;;2.03;1.53;;;;;;;;;;5086923;28;20682;-61
2023/03/29 10:09:01;;;;;;;3.13;1.70;;;;;;;;;;5087780;28;20211;-61
2023/03/29 10:11:31;;;;;;;1.87;1.77;;;;;;;;;;5086283;28;20214;-60
2023/03/29 10:14:01;;;;;;;3.20;1.80;;;;;;;;;;5087511;28;20291;-61
2023/03/29 10:16:30;;;;;;;2.87;2.10;;;;;;;;;;5087335;28;20296;-61
2023/03/29 10:18:57;;;;;;;3.03;2.77;;;;;;;;;;5087781;28;20207;-61
2023/03/29 10:21:24;;;;;;;3.30;3.10;;;;;;;;;;5087530;28;20217;-61
2023/03/29 10:23:58;;;;;;;3.67;2.60;;;;;;;;;;5086918;28;20241;-61
2023/03/29 10:26:26;;;;;;;1.87;1.77;;;;;;;;;;5088186;28;20877;-61
2023/03/29 10:28:56;;;;;;;3.70;1.77;;;;;;;;;;5091565;28;20229;-61
2023/03/29 10:31:24;;;;;;;4.87;1.70;;;;;;;;;;5091328;28;20245;-61
2023/03/29 10:33:52;;;;;;;7.23;3.57;;;;;;;;;;5090741;28;20234;-61
2023/03/29 10:36:20;;;;;;;1.97;1.87;;;;;;;;;;5091152;28;20202;-61
2023/03/29 10:38:47;;;;;;;2.17;1.93;;;;;;;;;;5091285;28;20210;-62
2023/03/29 10:41:16;;;;;;;2.30;2.10;;;;;;;;;;5090985;28;20676;-62
2023/03/29 10:43:44;;;;;;;5.47;2.50;;;;;;;;;;5091058;28;20215;-61
2023/03/29 10:46:13;;;;;;;4.30;3.53;;;;;;;;;;5089797;28;20216;-62
2023/03/29 10:48:45;;;;;;;1.77;1.57;;;;;;;;;;5091126;28;20218;-62
2023/03/29 10:51:14;;;;;;;2.40;1.70;;;;;;;;;;5090689;28;20260;-62
2023/03/29 10:53:42;;;;;;;2.77;2.07;;;;;;;;;;5090879;28;20233;-62
2023/03/29 10:56:15;;;;;;;3.67;2.08;;;;;;;;;;5090898;28;20202;-62
2023/03/29 10:58:50;;;;;;;1.70;1.60;;;;;;;;;;5091022;28;20268;-62
2023/03/29 11:01:21;;;;;;;2.97;2.78;;;;;;;;;;5090615;28;20204;-62
2023/03/29 11:03:59;;;;;;;5.88;4.05;;;;;;;;;;5090564;28;20696;-64
2023/03/29 11:06:28;;;;;;;4.25;3.83;;;;;;;;;;5090409;28;20202;-62
2023/03/29 11:08:58;;;;;;;2.47;2.22;;;;;;;;;;5090479;28;20217;-62
2023/03/29 11:11:33;;;;;;;2.08;1.98;;;;;;;;;;5090200;28;20233;-62
2023/03/29 11:14:06;;;;;;;1.63;1.52;;;;;;;;;;5090103;28;20228;-62
2023/03/29 11:16:40;;;;;;;1.83;1.73;;;;;;;;;;5090035;28;20728;-62
2023/03/29 11:19:17;;;;;;;2.30;2.13;;;;;;;;;;5090557;28;20213;-63
2023/03/29 11:21:50;;;;;;;2.45;2.25;;;;;;;;;;5095285;28;20230;-62
2023/03/29 11:24:26;;;;;;;1.48;1.40;;;;;;;;;;5087706;28;20234;-62
2023/03/29 11:26:59;;;;;;;1.50;1.50;;;;;;;;;;5087975;28;20202;-62
2023/03/29 11:29:28;;;;;;;1.63;1.52;;;;;;;;;;5089370;28;20213;-62
2023/03/29 11:32:01;;;;;;;1.85;1.50;;;;;;;;;;5090248;28;20220;-62
2023/03/29 11:34:32;;;;;;;1.60;1.50;;;;;;;;;;5089603;28;20689;-62
2023/03/29 11:37:01;;;;;;;3.17;1.42;;;;;;;;;;5097738;28;20657;-62
2023/03/29 11:39:31;;;;;;;1.90;1.70;;;;;;;;;;5110362;28;20205;-62
2023/03/29 11:42:02;;;;;;;1.45;1.45;;;;;;;;;;5089737;28;20214;-62
2023/03/29 11:44:30;;;;;;;4.43;2.28;;;;;;;;;;5089272;28;20201;-62
2023/03/29 11:47:02;;;;;;;1.70;1.60;;;;;;;;;;5090895;28;20210;-62
2023/03/29 11:49:32;;;;;;;1.67;1.58;;;;;;;;;;5089773;28;20222;-62
2023/03/29 11:52:03;;;;;;;3.03;2.78;;;;;;;;;;5110202;28;20300;-62
2023/03/29 11:54:33;;;;;;;2.35;2.20;;;;;;;;;;5106608;28;20272;-62
2023/03/29 11:57:02;;;;;;;1.77;1.67;;;;;;;;;;5090760;28;20203;-62
2023/03/29 11:59:33;;;;;;;1.33;1.33;;;;;;;;;;5099643;28;20641;-62
2023/03/29 12:02:04;;;;;;;1.58;1.48;;;;;;;;;;5089772;28;20202;-62
2023/03/29 12:04:34;;;;;;;3.65;1.67;;;;;;;;;;5089199;28;20695;-62
2023/03/29 12:07:06;;;;;;;1.92;1.83;;;;;;;;;;5089856;28;20213;-62
2023/03/29 12:09:36;;;;;;;3.00;2.05;;;;;;;;;;5069152;28;20211;-63
2023/03/29 12:12:08;;;;;;;2.95;2.42;;;;;;;;;;5084633;28;20230;-62
2023/03/29 12:14:43;;;;;;;2.75;2.05;;;;;;;;;;5091350;28;20225;-63
2023/03/29 12:17:13;;;;;;;2.30;2.10;;;;;;;;;;5088212;28;20209;-62
2023/03/29 12:19:43;;;;;;;4.15;1.50;;;;;;;;;;5088146;28;20695;-63
2023/03/29 12:22:10;;;;;;;2.38;1.88;;;;;;;;;;5079524;28;20222;-62
2023/03/29 12:24:39;;;;;;;1.67;1.58;;;;;;;;;;5089952;28;20203;-62
2023/03/29 12:27:20;;;;;;;1.55;1.55;;;;;;;;;;5087948;28;20235;-62
2023/03/29 12:29:55;;;;;;;1.27;1.27;;;;;;;;;;5083621;28;20202;-62
2023/03/29 12:32:32;;;;;;;1.50;1.40;;;;;;;;;;5071436;28;20202;-63
2023/03/29 12:35:05;;;;;;;1.50;1.40;;;;;;;;;;5078474;28;20218;-63
2023/03/29 12:37:35;;;;;;;1.60;1.50;;;;;;;;;;5098037;28;20207;-63
2023/03/29 12:40:11;;;;;;;2.38;1.50;;;;;;;;;;5097366;28;20201;-62
2023/03/29 12:42:45;;;;;;;1.63;1.52;;;;;;;;;;5088761;28;20220;-63
2023/03/29 12:45:15;;;;;;;1.48;1.48;;;;;;;;;;5088909;28;20210;-62
2023/03/29 12:47:44;;;;;;;1.58;1.48;;;;;;;;;;5095719;28;20794;-62
2023/03/29 12:50:19;;;;;;;1.88;1.45;;;;;;;;;;5087296;28;20210;-63
2023/03/29 12:52:46;;;;;;;2.15;1.50;;;;;;;;;;5088118;28;20472;-62
2023/03/29 12:55:24;;;;;;;1.70;1.60;;;;;;;;;;5088416;28;20712;-62
2023/03/29 12:57:58;;;;;;;1.95;1.85;;;;;;;;;;5088056;28;20233;-62
2023/03/29 13:00:27;;;;;;;1.45;1.35;;;;;;;;;;5088041;28;20674;-62
2023/03/29 13:03:03;;;;;;;2.22;1.63;;;;;;;;;;5087749;28;20561;-62
2023/03/29 13:05:32;;;;;;;1.42;1.42;;;;;;;;;;5088107;28;20274;-62
2023/03/29 13:07:59;;;;;;;3.05;2.70;;;;;;;;;;5087947;28;20445;-62
2023/03/29 13:10:31;;;;;;;2.88;1.98;;;;;;;;;;5087634;28;20217;-62
2023/03/29 13:13:08;;;;;;;2.28;1.90;;;;;;;;;;5087725;28;20209;-62
2023/03/29 13:15:35;;;;;;;1.42;1.33;;;;;;;;;;5087965;28;20213;-62
2023/03/29 13:18:11;;;;;;;2.72;2.10;;;;;;;;;;5087513;28;20198;-62
2023/03/29 13:20:45;;;;;;;2.13;2.03;;;;;;;;;;5087553;28;20202;-61
2023/03/29 13:23:23;;;;;;;3.10;2.90;;;;;;;;;;5087465;28;20328;-62
2023/03/29 13:25:57;;;;;;;2.40;1.83;;;;;;;;;;5088012;28;20243;-63
2023/03/29 13:28:30;;;;;;;1.67;1.58;;;;;;;;;;5087458;28;20210;-62
2023/03/29 13:30:59;;;;;;;2.30;1.67;;;;;;;;;;5091791;28;20232;-62
2023/03/29 13:33:45;;;;;;;2.05;1.50;;;;;;;;;;5087871;28;20213;-62
2023/03/29 13:36:16;;;;;;;2.03;1.23;;;;;;;;;;5097592;28;20213;-62
2023/03/29 13:38:47;;;;;;;1.83;1.48;;;;;;;;;;5087430;28;20301;-62
2023/03/29 13:41:27;;;;;;;1.23;1.23;;;;;;;;;;5087654;28;20673;-62
2023/03/29 13:43:55;;;;;;;1.98;1.88;;;;;;;;;;5087627;28;20668;-62
2023/03/29 13:46:23;;;;;;;1.13;1.13;;;;;;;;;;5087681;28;20782;-62
2023/03/29 13:49:04;;;;;;;2.42;2.22;;;;;;;;;;5087304;28;20198;-62
2023/03/29 13:51:37;;;;;;;1.23;1.23;;;;;;;;;;5088676;28;20206;-62
2023/03/29 13:54:10;;;;;;;3.10;1.10;;;;;;;;;;5090593;28;20221;-62
2023/03/29 13:56:39;;;;;;;19.50;12.70;;;;;;;;;;5087318;28;20206;-62
2023/03/29 13:59:12;;;;;;;3.03;2.80;;;;;;;;;;5088390;28;20222;-62
2023/03/29 14:01:42;;;;;;;3.67;1.45;;;;;;;;;;5090805;28;21017;-62
2023/03/29 14:04:14;;;;;;;1.10;1.10;;;;;;;;;;5088605;28;20992;-62
2023/03/29 14:06:42;;;;;;;1.98;1.88;;;;;;;;;;5104024;28;20202;-63
2023/03/29 14:09:09;;;;;;;1.63;1.52;;;;;;;;;;5098352;28;20237;-63
2023/03/29 14:11:36;;;;;;;2.08;1.35;;;;;;;;;;5089666;28;20206;-62
2023/03/29 14:14:05;;;;;;;1.30;1.27;;;;;;;;;;5091501;28;20252;-63
2023/03/29 14:16:34;;;;;;;1.10;1.10;;;;;;;;;;5090387;28;20241;-62
2023/03/29 14:19:03;;;;;;;1.02;1.02;;;;;;;;;;5090957;28;20202;-62
2023/03/29 14:21:31;;;;;;;1.52;1.42;;;;;;;;;;5090812;28;20218;-62
2023/03/29 14:24:00;;;;;;;1.65;1.33;;;;;;;;;;5090250;28;20253;-63
2023/03/29 14:26:30;;;;;;;1.45;1.38;;;;;;;;;;5090179;28;20206;-63
2023/03/29 14:28:59;;;;;;;1.00;1.00;;;;;;;;;;5089193;28;20206;-62
2023/03/29 14:31:30;;;;;;;1.48;1.30;;;;;;;;;;5077371;28;20553;-62
2023/03/29 14:33:58;;;;;;;1.02;0.88;;;;;;;;;;5099594;27;20711;-62
2023/03/29 14:36:26;;;;;;;1.30;1.20;;;;;;;;;;5089409;28;20210;-63
2023/03/29 14:38:58;;;;;;;1.20;1.20;;;;;;;;;;5094202;28;20671;-62
2023/03/29 14:41:29;;;;;;;1.10;1.10;;;;;;;;;;5090363;28;20822;-62
2023/03/29 14:43:56;;;;;;;3.15;1.60;;;;;;;;;;5090603;28;20229;-63
2023/03/29 14:46:24;;;;;;;3.63;1.40;;;;;;;;;;5090128;28;20221;-62
2023/03/29 14:48:51;;;;;;;1.23;1.05;;;;;;;;;;5089385;28;20244;-62
2023/03/29 14:51:18;;;;;;;1.58;0.93;;;;;;;;;;5094278;28;20214;-63
2023/03/29 14:53:46;;;;;;;1.30;1.20;;;;;;;;;;5090034;28;20211;-62
2023/03/29 14:56:16;;;;;;;1.33;1.23;;;;;;;;;;5090409;28;20206;-62